sensor_id;sensor_type;location;lat;lon;timestamp;P1;durP1;ratioP1;P2;durP2;ratioP2
64854;SDS011;51321;50.428;8.378;2022-11-15T00:01:00;5.70;;;4.07;;
64854;SDS011;51321;50.428;8.378;2022-11-15T00:03:41;4.03;;;3.35;;
64854;SDS011;51321;50.428;8.378;2022-11-15T00:06:22;4.68;;;3.72;;
64854;SDS011;51321;50.428;8.378;2022-11-15T00:09:02;6.20;;;3.97;;
64854;SDS011;51321;50.428;8.378;2022-11-15T00:11:43;5.80;;;3.90;;
64854;SDS011;51321;50.428;8.378;2022-11-15T00:14:25;4.38;;;3.45;;
64854;SDS011;51321;50.428;8.378;2022-11-15T00:17:05;5.90;;;4.47;;
64854;SDS011;51321;50.428;8.378;2022-11-15T00:19:47;6.78;;;4.10;;
64854;SDS011;51321;50.428;8.378;2022-11-15T00:22:31;5.57;;;4.75;;
64854;SDS011;51321;50.428;8.378;2022-11-15T00:25:12;5.25;;;3.45;;
64854;SDS011;51321;50.428;8.378;2022-11-15T00:27:54;6.78;;;4.20;;
64854;SDS011;51321;50.428;8.378;2022-11-15T00:30:36;7.18;;;4.45;;
64854;SDS011;51321;50.428;8.378;2022-11-15T00:33:17;8.93;;;4.23;;
64854;SDS011;51321;50.428;8.378;2022-11-15T00:35:59;8.63;;;4.30;;
64854;SDS011;51321;50.428;8.378;2022-11-15T00:38:42;5.53;;;3.95;;
64854;SDS011;51321;50.428;8.378;2022-11-15T00:41:24;8.45;;;4.57;;
64854;SDS011;51321;50.428;8.378;2022-11-15T00:44:05;9.93;;;5.72;;
64854;SDS011;51321;50.428;8.378;2022-11-15T00:46:47;6.57;;;5.32;;
64854;SDS011;51321;50.428;8.378;2022-11-15T00:49:28;8.70;;;5.82;;
64854;SDS011;51321;50.428;8.378;2022-11-15T00:52:08;5.60;;;4.18;;
64854;SDS011;51321;50.428;8.378;2022-11-15T00:54:49;8.23;;;5.55;;
64854;SDS011;51321;50.428;8.378;2022-11-15T00:57:30;6.93;;;4.50;;
64854;SDS011;51321;50.428;8.378;2022-11-15T01:00:11;10.63;;;6.20;;
64854;SDS011;51321;50.428;8.378;2022-11-15T01:02:53;7.22;;;5.82;;
64854;SDS011;51321;50.428;8.378;2022-11-15T01:05:36;7.18;;;5.18;;
64854;SDS011;51321;50.428;8.378;2022-11-15T01:08:17;7.93;;;5.68;;
64854;SDS011;51321;50.428;8.378;2022-11-15T01:11:00;6.55;;;5.05;;
64854;SDS011;51321;50.428;8.378;2022-11-15T01:13:41;7.45;;;4.82;;
64854;SDS011;51321;50.428;8.378;2022-11-15T01:16:21;10.60;;;5.93;;
64854;SDS011;51321;50.428;8.378;2022-11-15T01:19:03;8.02;;;5.07;;
64854;SDS011;51321;50.428;8.378;2022-11-15T01:21:44;8.95;;;5.47;;
64854;SDS011;51321;50.428;8.378;2022-11-15T01:24:26;10.20;;;6.55;;
64854;SDS011;51321;50.428;8.378;2022-11-15T01:27:08;8.27;;;5.93;;
64854;SDS011;51321;50.428;8.378;2022-11-15T01:29:48;7.45;;;4.88;;
64854;SDS011;51321;50.428;8.378;2022-11-15T01:32:29;6.72;;;5.40;;
64854;SDS011;51321;50.428;8.378;2022-11-15T01:35:11;7.88;;;5.32;;
64854;SDS011;51321;50.428;8.378;2022-11-15T01:37:52;7.22;;;6.40;;
64854;SDS011;51321;50.428;8.378;2022-11-15T01:40:32;7.40;;;5.57;;
64854;SDS011;51321;50.428;8.378;2022-11-15T01:43:20;9.38;;;5.32;;
64854;SDS011;51321;50.428;8.378;2022-11-15T01:46:04;6.85;;;4.63;;
64854;SDS011;51321;50.428;8.378;2022-11-15T01:48:54;6.50;;;5.03;;
64854;SDS011;51321;50.428;8.378;2022-11-15T01:51:39;10.43;;;4.95;;
64854;SDS011;51321;50.428;8.378;2022-11-15T01:54:20;7.23;;;4.77;;
64854;SDS011;51321;50.428;8.378;2022-11-15T01:57:04;8.05;;;4.63;;
64854;SDS011;51321;50.428;8.378;2022-11-15T01:59:47;5.55;;;4.78;;
64854;SDS011;51321;50.428;8.378;2022-11-15T02:02:28;7.38;;;4.50;;
64854;SDS011;51321;50.428;8.378;2022-11-15T02:05:09;6.43;;;4.35;;
64854;SDS011;51321;50.428;8.378;2022-11-15T02:07:51;5.95;;;4.13;;
64854;SDS011;51321;50.428;8.378;2022-11-15T02:10:33;5.95;;;3.75;;
64854;SDS011;51321;50.428;8.378;2022-11-15T02:13:14;7.25;;;4.20;;
64854;SDS011;51321;50.428;8.378;2022-11-15T02:15:58;6.90;;;4.20;;
64854;SDS011;51321;50.428;8.378;2022-11-15T02:18:45;5.10;;;3.90;;
64854;SDS011;51321;50.428;8.378;2022-11-15T02:21:32;6.95;;;3.72;;
64854;SDS011;51321;50.428;8.378;2022-11-15T02:24:32;5.55;;;3.78;;
64854;SDS011;51321;50.428;8.378;2022-11-15T02:27:45;4.80;;;3.30;;
64854;SDS011;51321;50.428;8.378;2022-11-15T02:30:40;5.05;;;3.88;;
64854;SDS011;51321;50.428;8.378;2022-11-15T02:33:26;7.75;;;4.55;;
64854;SDS011;51321;50.428;8.378;2022-11-15T02:36:17;5.68;;;4.13;;
64854;SDS011;51321;50.428;8.378;2022-11-15T02:39:06;6.88;;;3.55;;
64854;SDS011;51321;50.428;8.378;2022-11-15T02:41:51;6.70;;;4.05;;
64854;SDS011;51321;50.428;8.378;2022-11-15T02:44:36;6.50;;;4.03;;
64854;SDS011;51321;50.428;8.378;2022-11-15T02:47:23;6.47;;;4.32;;
64854;SDS011;51321;50.428;8.378;2022-11-15T02:50:08;7.32;;;4.18;;
64854;SDS011;51321;50.428;8.378;2022-11-15T02:52:50;4.78;;;3.70;;
64854;SDS011;51321;50.428;8.378;2022-11-15T02:55:33;5.57;;;4.00;;
64854;SDS011;51321;50.428;8.378;2022-11-15T02:58:22;6.75;;;4.97;;
64854;SDS011;51321;50.428;8.378;2022-11-15T03:01:23;6.82;;;3.72;;
64854;SDS011;51321;50.428;8.378;2022-11-15T03:04:19;6.15;;;3.85;;
64854;SDS011;51321;50.428;8.378;2022-11-15T03:07:07;6.22;;;4.10;;
64854;SDS011;51321;50.428;8.378;2022-11-15T03:09:54;6.68;;;4.13;;
64854;SDS011;51321;50.428;8.378;2022-11-15T03:12:41;7.15;;;3.95;;
64854;SDS011;51321;50.428;8.378;2022-11-15T03:15:27;6.05;;;4.05;;
64854;SDS011;51321;50.428;8.378;2022-11-15T03:18:12;6.10;;;4.35;;
64854;SDS011;51321;50.428;8.378;2022-11-15T03:21:01;8.88;;;4.03;;
64854;SDS011;51321;50.428;8.378;2022-11-15T03:23:45;5.35;;;4.13;;
64854;SDS011;51321;50.428;8.378;2022-11-15T03:26:28;4.15;;;3.50;;
64854;SDS011;51321;50.428;8.378;2022-11-15T03:29:11;4.65;;;4.07;;
64854;SDS011;51321;50.428;8.378;2022-11-15T03:31:56;9.00;;;5.47;;
64854;SDS011;51321;50.428;8.378;2022-11-15T03:34:43;14.85;;;7.68;;
64854;SDS011;51321;50.428;8.378;2022-11-15T03:37:29;5.90;;;4.43;;
64854;SDS011;51321;50.428;8.378;2022-11-15T03:40:14;4.40;;;3.55;;
64854;SDS011;51321;50.428;8.378;2022-11-15T03:42:57;4.80;;;3.50;;
64854;SDS011;51321;50.428;8.378;2022-11-15T03:45:46;6.53;;;3.80;;
64854;SDS011;51321;50.428;8.378;2022-11-15T03:48:33;6.25;;;4.00;;
64854;SDS011;51321;50.428;8.378;2022-11-15T03:51:20;5.18;;;3.42;;
64854;SDS011;51321;50.428;8.378;2022-11-15T03:54:03;3.10;;;2.80;;
64854;SDS011;51321;50.428;8.378;2022-11-15T03:56:44;4.82;;;3.03;;
64854;SDS011;51321;50.428;8.378;2022-11-15T03:59:25;6.28;;;3.15;;
64854;SDS011;51321;50.428;8.378;2022-11-15T04:02:06;8.10;;;3.30;;
64854;SDS011;51321;50.428;8.378;2022-11-15T04:04:47;5.70;;;3.42;;
64854;SDS011;51321;50.428;8.378;2022-11-15T04:07:27;5.75;;;3.80;;
64854;SDS011;51321;50.428;8.378;2022-11-15T04:10:10;5.30;;;3.33;;
64854;SDS011;51321;50.428;8.378;2022-11-15T04:12:52;5.43;;;3.58;;
64854;SDS011;51321;50.428;8.378;2022-11-15T04:15:32;5.47;;;3.00;;
64854;SDS011;51321;50.428;8.378;2022-11-15T04:18:13;3.70;;;3.25;;
64854;SDS011;51321;50.428;8.378;2022-11-15T04:20:54;4.55;;;3.42;;
64854;SDS011;51321;50.428;8.378;2022-11-15T04:23:52;6.15;;;3.88;;
64854;SDS011;51321;50.428;8.378;2022-11-15T04:26:52;4.72;;;3.10;;
64854;SDS011;51321;50.428;8.378;2022-11-15T04:29:32;4.78;;;3.50;;
64854;SDS011;51321;50.428;8.378;2022-11-15T04:32:15;5.20;;;3.60;;
64854;SDS011;51321;50.428;8.378;2022-11-15T04:34:56;3.97;;;3.08;;
64854;SDS011;51321;50.428;8.378;2022-11-15T04:37:37;5.82;;;3.22;;
64854;SDS011;51321;50.428;8.378;2022-11-15T04:40:18;4.57;;;3.22;;
64854;SDS011;51321;50.428;8.378;2022-11-15T04:43:00;6.35;;;3.75;;
64854;SDS011;51321;50.428;8.378;2022-11-15T04:45:40;5.35;;;3.42;;
64854;SDS011;51321;50.428;8.378;2022-11-15T04:48:21;3.83;;;3.10;;
64854;SDS011;51321;50.428;8.378;2022-11-15T04:51:03;4.40;;;3.05;;
64854;SDS011;51321;50.428;8.378;2022-11-15T04:53:44;6.75;;;3.55;;
64854;SDS011;51321;50.428;8.378;2022-11-15T04:56:25;6.55;;;3.55;;
64854;SDS011;51321;50.428;8.378;2022-11-15T04:59:07;6.38;;;3.45;;
64854;SDS011;51321;50.428;8.378;2022-11-15T05:01:48;4.88;;;3.42;;
64854;SDS011;51321;50.428;8.378;2022-11-15T05:04:29;5.22;;;3.10;;
64854;SDS011;51321;50.428;8.378;2022-11-15T05:07:08;5.78;;;3.35;;
64854;SDS011;51321;50.428;8.378;2022-11-15T05:09:49;7.63;;;3.38;;
64854;SDS011;51321;50.428;8.378;2022-11-15T05:12:30;6.78;;;3.67;;
64854;SDS011;51321;50.428;8.378;2022-11-15T05:15:13;4.63;;;3.63;;
64854;SDS011;51321;50.428;8.378;2022-11-15T05:17:56;5.88;;;3.35;;
64854;SDS011;51321;50.428;8.378;2022-11-15T05:20:38;5.47;;;3.45;;
64854;SDS011;51321;50.428;8.378;2022-11-15T05:23:18;4.68;;;3.63;;
64854;SDS011;51321;50.428;8.378;2022-11-15T05:26:00;4.65;;;3.60;;
64854;SDS011;51321;50.428;8.378;2022-11-15T05:28:40;5.53;;;3.78;;
64854;SDS011;51321;50.428;8.378;2022-11-15T05:31:22;7.38;;;3.40;;
64854;SDS011;51321;50.428;8.378;2022-11-15T05:34:04;5.82;;;3.40;;
64854;SDS011;51321;50.428;8.378;2022-11-15T05:36:45;4.60;;;3.22;;
64854;SDS011;51321;50.428;8.378;2022-11-15T05:39:26;6.47;;;3.10;;
64854;SDS011;51321;50.428;8.378;2022-11-15T05:42:07;5.10;;;3.58;;
64854;SDS011;51321;50.428;8.378;2022-11-15T05:44:50;6.07;;;3.35;;
64854;SDS011;51321;50.428;8.378;2022-11-15T05:47:32;7.70;;;3.33;;
64854;SDS011;51321;50.428;8.378;2022-11-15T05:50:16;6.40;;;3.58;;
64854;SDS011;51321;50.428;8.378;2022-11-15T05:52:58;5.55;;;3.50;;
64854;SDS011;51321;50.428;8.378;2022-11-15T05:55:39;4.82;;;3.75;;
64854;SDS011;51321;50.428;8.378;2022-11-15T05:58:21;7.45;;;4.07;;
64854;SDS011;51321;50.428;8.378;2022-11-15T06:01:02;7.57;;;3.67;;
64854;SDS011;51321;50.428;8.378;2022-11-15T06:03:44;5.32;;;3.15;;
64854;SDS011;51321;50.428;8.378;2022-11-15T06:06:27;8.93;;;4.15;;
64854;SDS011;51321;50.428;8.378;2022-11-15T06:09:07;7.28;;;4.47;;
64854;SDS011;51321;50.428;8.378;2022-11-15T06:11:48;12.88;;;5.78;;
64854;SDS011;51321;50.428;8.378;2022-11-15T06:14:28;6.93;;;4.43;;
64854;SDS011;51321;50.428;8.378;2022-11-15T06:17:09;9.50;;;4.63;;
64854;SDS011;51321;50.428;8.378;2022-11-15T06:19:51;10.70;;;5.60;;
64854;SDS011;51321;50.428;8.378;2022-11-15T06:22:32;12.38;;;6.63;;
64854;SDS011;51321;50.428;8.378;2022-11-15T06:25:12;7.45;;;5.43;;
64854;SDS011;51321;50.428;8.378;2022-11-15T06:27:53;8.80;;;5.68;;
64854;SDS011;51321;50.428;8.378;2022-11-15T06:30:34;12.32;;;5.68;;
64854;SDS011;51321;50.428;8.378;2022-11-15T06:33:15;11.13;;;5.55;;
64854;SDS011;51321;50.428;8.378;2022-11-15T06:36:00;12.93;;;6.05;;
64854;SDS011;51321;50.428;8.378;2022-11-15T06:38:41;6.88;;;4.90;;
64854;SDS011;51321;50.428;8.378;2022-11-15T06:41:23;10.65;;;4.88;;
64854;SDS011;51321;50.428;8.378;2022-11-15T06:44:03;10.65;;;5.55;;
64854;SDS011;51321;50.428;8.378;2022-11-15T06:46:45;10.77;;;6.28;;
64854;SDS011;51321;50.428;8.378;2022-11-15T06:49:26;12.25;;;6.28;;
64854;SDS011;51321;50.428;8.378;2022-11-15T06:52:08;10.18;;;6.28;;
64854;SDS011;51321;50.428;8.378;2022-11-15T06:54:49;13.03;;;5.77;;
64854;SDS011;51321;50.428;8.378;2022-11-15T06:57:29;10.23;;;5.10;;
64854;SDS011;51321;50.428;8.378;2022-11-15T07:00:12;8.82;;;4.85;;
64854;SDS011;51321;50.428;8.378;2022-11-15T07:02:54;8.32;;;5.70;;
64854;SDS011;51321;50.428;8.378;2022-11-15T07:05:35;10.20;;;5.22;;
64854;SDS011;51321;50.428;8.378;2022-11-15T07:08:17;13.90;;;7.68;;
64854;SDS011;51321;50.428;8.378;2022-11-15T07:10:58;11.00;;;6.70;;
64854;SDS011;51321;50.428;8.378;2022-11-15T07:13:42;9.10;;;5.45;;
64854;SDS011;51321;50.428;8.378;2022-11-15T07:16:23;9.25;;;4.95;;
64854;SDS011;51321;50.428;8.378;2022-11-15T07:19:04;9.15;;;5.18;;
64854;SDS011;51321;50.428;8.378;2022-11-15T07:21:45;8.82;;;5.15;;
64854;SDS011;51321;50.428;8.378;2022-11-15T07:24:28;11.90;;;5.53;;
64854;SDS011;51321;50.428;8.378;2022-11-15T07:27:08;11.23;;;6.05;;
64854;SDS011;51321;50.428;8.378;2022-11-15T07:29:49;10.27;;;5.68;;
64854;SDS011;51321;50.428;8.378;2022-11-15T07:32:30;9.93;;;5.68;;
64854;SDS011;51321;50.428;8.378;2022-11-15T07:35:11;9.80;;;4.65;;
64854;SDS011;51321;50.428;8.378;2022-11-15T07:37:55;6.00;;;4.15;;
64854;SDS011;51321;50.428;8.378;2022-11-15T07:40:38;6.97;;;4.45;;
64854;SDS011;51321;50.428;8.378;2022-11-15T07:43:18;6.15;;;4.35;;
64854;SDS011;51321;50.428;8.378;2022-11-15T07:46:03;11.25;;;4.45;;
64854;SDS011;51321;50.428;8.378;2022-11-15T07:48:46;8.70;;;3.35;;
64854;SDS011;51321;50.428;8.378;2022-11-15T07:51:27;5.05;;;3.13;;
64854;SDS011;51321;50.428;8.378;2022-11-15T07:54:07;6.15;;;3.55;;
64854;SDS011;51321;50.428;8.378;2022-11-15T07:56:49;7.55;;;4.20;;
64854;SDS011;51321;50.428;8.378;2022-11-15T07:59:30;5.43;;;4.07;;
64854;SDS011;51321;50.428;8.378;2022-11-15T08:02:11;5.65;;;3.85;;
64854;SDS011;51321;50.428;8.378;2022-11-15T08:04:51;4.35;;;3.17;;
64854;SDS011;51321;50.428;8.378;2022-11-15T08:07:32;6.55;;;3.85;;
64854;SDS011;51321;50.428;8.378;2022-11-15T08:10:13;6.10;;;3.78;;
64854;SDS011;51321;50.428;8.378;2022-11-15T08:12:59;9.55;;;4.45;;
64854;SDS011;51321;50.428;8.378;2022-11-15T08:15:41;5.53;;;3.50;;
64854;SDS011;51321;50.428;8.378;2022-11-15T08:18:22;5.63;;;4.20;;
64854;SDS011;51321;50.428;8.378;2022-11-15T08:21:03;6.47;;;3.70;;
64854;SDS011;51321;50.428;8.378;2022-11-15T08:23:44;7.20;;;3.90;;
64854;SDS011;51321;50.428;8.378;2022-11-15T08:26:25;10.05;;;6.75;;
64854;SDS011;51321;50.428;8.378;2022-11-15T08:29:12;9.10;;;5.72;;
64854;SDS011;51321;50.428;8.378;2022-11-15T08:31:54;11.65;;;5.03;;
64854;SDS011;51321;50.428;8.378;2022-11-15T08:34:35;9.20;;;5.35;;
64854;SDS011;51321;50.428;8.378;2022-11-15T08:37:16;5.35;;;4.53;;
64854;SDS011;51321;50.428;8.378;2022-11-15T08:39:57;7.43;;;4.53;;
64854;SDS011;51321;50.428;8.378;2022-11-15T08:42:38;11.18;;;8.63;;
64854;SDS011;51321;50.428;8.378;2022-11-15T08:45:20;10.55;;;8.82;;
64854;SDS011;51321;50.428;8.378;2022-11-15T08:48:01;9.95;;;8.68;;
64854;SDS011;51321;50.428;8.378;2022-11-15T08:50:43;12.15;;;8.48;;
64854;SDS011;51321;50.428;8.378;2022-11-15T08:53:23;9.70;;;7.85;;
64854;SDS011;51321;50.428;8.378;2022-11-15T08:56:06;11.50;;;8.30;;
64854;SDS011;51321;50.428;8.378;2022-11-15T08:58:48;15.50;;;11.38;;
64854;SDS011;51321;50.428;8.378;2022-11-15T09:01:32;23.58;;;18.83;;
64854;SDS011;51321;50.428;8.378;2022-11-15T09:04:13;21.17;;;17.45;;
64854;SDS011;51321;50.428;8.378;2022-11-15T09:06:54;14.80;;;11.07;;
64854;SDS011;51321;50.428;8.378;2022-11-15T09:09:34;8.02;;;6.95;;
64854;SDS011;51321;50.428;8.378;2022-11-15T09:12:15;8.48;;;6.60;;
64854;SDS011;51321;50.428;8.378;2022-11-15T09:14:56;8.25;;;6.57;;
64854;SDS011;51321;50.428;8.378;2022-11-15T09:17:39;8.93;;;7.25;;
64854;SDS011;51321;50.428;8.378;2022-11-15T09:20:19;13.82;;;7.78;;
64854;SDS011;51321;50.428;8.378;2022-11-15T09:23:00;8.68;;;6.00;;
64854;SDS011;51321;50.428;8.378;2022-11-15T09:25:41;9.55;;;4.00;;
64854;SDS011;51321;50.428;8.378;2022-11-15T09:28:22;3.83;;;2.60;;
64854;SDS011;51321;50.428;8.378;2022-11-15T09:31:04;4.50;;;2.30;;
64854;SDS011;51321;50.428;8.378;2022-11-15T09:33:47;5.80;;;3.65;;
64854;SDS011;51321;50.428;8.378;2022-11-15T09:36:28;3.88;;;2.17;;
64854;SDS011;51321;50.428;8.378;2022-11-15T09:39:09;4.35;;;2.25;;
64854;SDS011;51321;50.428;8.378;2022-11-15T09:42:09;3.10;;;2.45;;
64854;SDS011;51321;50.428;8.378;2022-11-15T09:45:06;3.17;;;2.22;;
64854;SDS011;51321;50.428;8.378;2022-11-15T09:51:08;2.13;;;1.50;;
64854;SDS011;51321;50.428;8.378;2022-11-15T09:53:36;2.45;;;1.52;;
64854;SDS011;51321;50.428;8.378;2022-11-15T09:56:11;3.33;;;1.65;;
64854;SDS011;51321;50.428;8.378;2022-11-15T09:58:40;2.30;;;1.73;;
64854;SDS011;51321;50.428;8.378;2022-11-15T10:01:14;2.40;;;1.45;;
64854;SDS011;51321;50.428;8.378;2022-11-15T10:03:40;3.03;;;1.58;;
64854;SDS011;51321;50.428;8.378;2022-11-15T10:06:04;2.33;;;1.40;;
64854;SDS011;51321;50.428;8.378;2022-11-15T10:08:40;2.00;;;1.20;;
64854;SDS011;51321;50.428;8.378;2022-11-15T10:11:09;2.53;;;1.15;;
64854;SDS011;51321;50.428;8.378;2022-11-15T10:13:33;3.30;;;1.50;;
64854;SDS011;51321;50.428;8.378;2022-11-15T10:16:00;4.03;;;1.92;;
64854;SDS011;51321;50.428;8.378;2022-11-15T10:18:30;2.57;;;1.40;;
64854;SDS011;51321;50.428;8.378;2022-11-15T10:20:58;4.35;;;2.00;;
64854;SDS011;51321;50.428;8.378;2022-11-15T10:23:24;3.47;;;1.83;;
64854;SDS011;51321;50.428;8.378;2022-11-15T10:25:49;2.70;;;1.50;;
64854;SDS011;51321;50.428;8.378;2022-11-15T10:28:15;1.90;;;1.23;;
64854;SDS011;51321;50.428;8.378;2022-11-15T10:30:39;2.78;;;1.60;;
64854;SDS011;51321;50.428;8.378;2022-11-15T10:33:10;2.53;;;1.35;;
64854;SDS011;51321;50.428;8.378;2022-11-15T10:35:40;2.55;;;1.70;;
64854;SDS011;51321;50.428;8.378;2022-11-15T10:40:29;1.95;;;1.58;;
64854;SDS011;51321;50.428;8.378;2022-11-15T10:45:27;1.75;;;1.23;;
64854;SDS011;51321;50.428;8.378;2022-11-15T10:47:52;1.70;;;1.20;;
64854;SDS011;51321;50.428;8.378;2022-11-15T10:50:25;2.17;;;1.45;;
64854;SDS011;51321;50.428;8.378;2022-11-15T10:52:49;2.28;;;1.40;;
64854;SDS011;51321;50.428;8.378;2022-11-15T10:55:22;1.65;;;1.30;;
64854;SDS011;51321;50.428;8.378;2022-11-15T10:57:48;5.40;;;1.63;;
64854;SDS011;51321;50.428;8.378;2022-11-15T11:00:26;1.65;;;1.20;;
64854;SDS011;51321;50.428;8.378;2022-11-15T11:03:01;4.15;;;1.38;;
64854;SDS011;51321;50.428;8.378;2022-11-15T11:05:28;3.10;;;1.40;;
64854;SDS011;51321;50.428;8.378;2022-11-15T11:07:55;3.00;;;1.48;;
64854;SDS011;51321;50.428;8.378;2022-11-15T11:10:19;2.17;;;1.20;;
64854;SDS011;51321;50.428;8.378;2022-11-15T11:12:42;3.50;;;0.98;;
64854;SDS011;51321;50.428;8.378;2022-11-15T11:15:09;4.68;;;1.30;;
64854;SDS011;51321;50.428;8.378;2022-11-15T11:17:39;3.13;;;1.55;;
64854;SDS011;51321;50.428;8.378;2022-11-15T11:20:15;2.20;;;1.20;;
64854;SDS011;51321;50.428;8.378;2022-11-15T11:22:46;2.70;;;1.35;;
64854;SDS011;51321;50.428;8.378;2022-11-15T11:25:22;4.45;;;1.73;;
64854;SDS011;51321;50.428;8.378;2022-11-15T11:27:57;2.92;;;1.50;;
64854;SDS011;51321;50.428;8.378;2022-11-15T11:30:32;1.38;;;1.10;;
64854;SDS011;51321;50.428;8.378;2022-11-15T11:33:07;2.00;;;1.17;;
64854;SDS011;51321;50.428;8.378;2022-11-15T11:38:00;3.83;;;1.15;;
64854;SDS011;51321;50.428;8.378;2022-11-15T11:40:43;3.38;;;1.40;;
64854;SDS011;51321;50.428;8.378;2022-11-15T11:43:23;1.75;;;1.00;;
64854;SDS011;51321;50.428;8.378;2022-11-15T11:45:56;1.85;;;0.90;;
64854;SDS011;51321;50.428;8.378;2022-11-15T11:48:38;2.20;;;1.00;;
64854;SDS011;51321;50.428;8.378;2022-11-15T11:51:05;5.93;;;1.25;;
64854;SDS011;51321;50.428;8.378;2022-11-15T11:53:35;1.42;;;1.02;;
64854;SDS011;51321;50.428;8.378;2022-11-15T11:56:03;3.60;;;1.10;;
64854;SDS011;51321;50.428;8.378;2022-11-15T11:58:33;2.95;;;1.05;;
64854;SDS011;51321;50.428;8.378;2022-11-15T12:01:10;7.78;;;1.40;;
64854;SDS011;51321;50.428;8.378;2022-11-15T12:03:40;1.33;;;0.95;;
64854;SDS011;51321;50.428;8.378;2022-11-15T12:06:06;3.70;;;1.67;;
64854;SDS011;51321;50.428;8.378;2022-11-15T12:08:41;2.25;;;1.10;;
64854;SDS011;51321;50.428;8.378;2022-11-15T12:11:09;2.40;;;1.10;;
64854;SDS011;51321;50.428;8.378;2022-11-15T12:13:36;4.15;;;1.00;;
64854;SDS011;51321;50.428;8.378;2022-11-15T12:16:00;3.42;;;1.20;;
64854;SDS011;51321;50.428;8.378;2022-11-15T12:18:27;2.85;;;1.10;;
64854;SDS011;51321;50.428;8.378;2022-11-15T12:20:52;1.98;;;0.80;;
64854;SDS011;51321;50.428;8.378;2022-11-15T12:23:19;1.88;;;0.80;;
64854;SDS011;51321;50.428;8.378;2022-11-15T12:25:46;1.35;;;0.80;;
64854;SDS011;51321;50.428;8.378;2022-11-15T12:28:12;2.55;;;0.80;;
64854;SDS011;51321;50.428;8.378;2022-11-15T12:30:41;3.15;;;0.80;;
64854;SDS011;51321;50.428;8.378;2022-11-15T12:33:13;2.33;;;1.23;;
64854;SDS011;51321;50.428;8.378;2022-11-15T12:35:58;1.35;;;0.80;;
64854;SDS011;51321;50.428;8.378;2022-11-15T12:41:14;1.40;;;0.88;;
64854;SDS011;51321;50.428;8.378;2022-11-15T12:43:38;2.50;;;1.02;;
64854;SDS011;51321;50.428;8.378;2022-11-15T12:46:03;2.97;;;2.55;;
64854;SDS011;51321;50.428;8.378;2022-11-15T12:48:46;21.23;;;17.20;;
64854;SDS011;51321;50.428;8.378;2022-11-15T12:51:15;4.88;;;2.22;;
64854;SDS011;51321;50.428;8.378;2022-11-15T12:53:37;1.63;;;1.05;;
64854;SDS011;51321;50.428;8.378;2022-11-15T12:56:09;1.80;;;0.98;;
64854;SDS011;51321;50.428;8.378;2022-11-15T12:58:44;1.40;;;1.00;;
64854;SDS011;51321;50.428;8.378;2022-11-15T13:01:08;1.77;;;1.00;;
64854;SDS011;51321;50.428;8.378;2022-11-15T13:03:31;2.75;;;0.70;;
64854;SDS011;51321;50.428;8.378;2022-11-15T13:09:49;1.30;;;0.80;;
64854;SDS011;51321;50.428;8.378;2022-11-15T13:12:08;1.83;;;1.20;;
64854;SDS011;51321;50.428;8.378;2022-11-15T13:14:47;2.40;;;1.10;;
64854;SDS011;51321;50.428;8.378;2022-11-15T13:17:24;1.38;;;1.05;;
64854;SDS011;51321;50.428;8.378;2022-11-15T13:19:52;4.95;;;1.20;;
64854;SDS011;51321;50.428;8.378;2022-11-15T13:22:20;2.58;;;1.08;;
64854;SDS011;51321;50.428;8.378;2022-11-15T13:25:00;10.07;;;5.50;;
64854;SDS011;51321;50.428;8.378;2022-11-15T13:27:23;6.22;;;3.83;;
64854;SDS011;51321;50.428;8.378;2022-11-15T13:29:46;1.30;;;1.20;;
64854;SDS011;51321;50.428;8.378;2022-11-15T13:32:10;2.10;;;1.40;;
64854;SDS011;51321;50.428;8.378;2022-11-15T13:34:34;2.58;;;1.10;;
64854;SDS011;51321;50.428;8.378;2022-11-15T13:36:58;2.80;;;1.10;;
64854;SDS011;51321;50.428;8.378;2022-11-15T13:39:28;3.42;;;1.05;;
64854;SDS011;51321;50.428;8.378;2022-11-15T13:41:53;1.80;;;1.35;;
64854;SDS011;51321;50.428;8.378;2022-11-15T13:44:18;3.22;;;1.20;;
64854;SDS011;51321;50.428;8.378;2022-11-15T13:46:45;1.25;;;0.95;;
64854;SDS011;51321;50.428;8.378;2022-11-15T13:49:08;2.10;;;0.95;;
64854;SDS011;51321;50.428;8.378;2022-11-15T13:51:33;1.73;;;1.02;;
64854;SDS011;51321;50.428;8.378;2022-11-15T13:53:58;1.20;;;0.95;;
64854;SDS011;51321;50.428;8.378;2022-11-15T13:56:27;1.15;;;0.88;;
64854;SDS011;51321;50.428;8.378;2022-11-15T13:58:53;1.83;;;1.00;;
64854;SDS011;51321;50.428;8.378;2022-11-15T14:01:16;2.38;;;0.93;;
64854;SDS011;51321;50.428;8.378;2022-11-15T14:03:41;1.75;;;0.95;;
64854;SDS011;51321;50.428;8.378;2022-11-15T14:06:11;1.35;;;1.08;;
64854;SDS011;51321;50.428;8.378;2022-11-15T14:08:35;1.65;;;1.38;;
64854;SDS011;51321;50.428;8.378;2022-11-15T14:11:07;2.50;;;1.40;;
64854;SDS011;51321;50.428;8.378;2022-11-15T14:13:33;2.03;;;1.40;;
64854;SDS011;51321;50.428;8.378;2022-11-15T14:18:40;3.33;;;1.63;;
64854;SDS011;51321;50.428;8.378;2022-11-15T14:21:07;3.08;;;2.00;;
64854;SDS011;51321;50.428;8.378;2022-11-15T14:23:30;3.50;;;2.15;;
64854;SDS011;51321;50.428;8.378;2022-11-15T14:25:52;2.88;;;2.10;;
64854;SDS011;51321;50.428;8.378;2022-11-15T14:28:28;3.10;;;2.13;;
64854;SDS011;51321;50.428;8.378;2022-11-15T14:30:53;4.15;;;2.30;;
64854;SDS011;51321;50.428;8.378;2022-11-15T14:33:19;4.00;;;2.83;;
64854;SDS011;51321;50.428;8.378;2022-11-15T14:35:43;6.32;;;2.95;;
64854;SDS011;51321;50.428;8.378;2022-11-15T14:40:28;5.38;;;3.72;;
64854;SDS011;51321;50.428;8.378;2022-11-15T14:42:51;6.25;;;3.67;;
64854;SDS011;51321;50.428;8.378;2022-11-15T14:45:14;4.65;;;3.78;;
64854;SDS011;51321;50.428;8.378;2022-11-15T14:47:37;4.88;;;3.45;;
64854;SDS011;51321;50.428;8.378;2022-11-15T14:52:24;4.18;;;3.78;;
64854;SDS011;51321;50.428;8.378;2022-11-15T14:54:49;6.35;;;4.28;;
64854;SDS011;51321;50.428;8.378;2022-11-15T14:57:11;6.25;;;3.95;;
64854;SDS011;51321;50.428;8.378;2022-11-15T14:59:33;8.13;;;4.40;;
64854;SDS011;51321;50.428;8.378;2022-11-15T15:01:56;10.38;;;4.22;;
64854;SDS011;51321;50.428;8.378;2022-11-15T15:04:20;5.55;;;4.47;;
64854;SDS011;51321;50.428;8.378;2022-11-15T15:06:44;5.88;;;4.10;;
64854;SDS011;51321;50.428;8.378;2022-11-15T15:09:07;4.68;;;4.20;;
64854;SDS011;51321;50.428;8.378;2022-11-15T15:11:30;5.55;;;4.72;;
64854;SDS011;51321;50.428;8.378;2022-11-15T15:13:52;4.97;;;4.18;;
64854;SDS011;51321;50.428;8.378;2022-11-15T15:16:17;4.57;;;3.60;;
64854;SDS011;51321;50.428;8.378;2022-11-15T15:18:39;4.35;;;3.92;;
64854;SDS011;51321;50.428;8.378;2022-11-15T15:21:01;5.10;;;3.67;;
64854;SDS011;51321;50.428;8.378;2022-11-15T15:23:28;5.47;;;3.75;;
64854;SDS011;51321;50.428;8.378;2022-11-15T15:25:51;7.78;;;3.47;;
64854;SDS011;51321;50.428;8.378;2022-11-15T15:28:13;7.05;;;3.15;;
64854;SDS011;51321;50.428;8.378;2022-11-15T15:30:35;4.45;;;3.22;;
64854;SDS011;51321;50.428;8.378;2022-11-15T15:32:58;6.75;;;4.00;;
64854;SDS011;51321;50.428;8.378;2022-11-15T15:37:43;7.07;;;3.67;;
64854;SDS011;51321;50.428;8.378;2022-11-15T15:40:10;5.50;;;3.22;;
64854;SDS011;51321;50.428;8.378;2022-11-15T15:42:34;4.75;;;3.15;;
64854;SDS011;51321;50.428;8.378;2022-11-15T15:44:57;4.68;;;3.20;;
64854;SDS011;51321;50.428;8.378;2022-11-15T15:47:19;4.70;;;3.40;;
64854;SDS011;51321;50.428;8.378;2022-11-15T15:49:43;9.23;;;4.82;;
64854;SDS011;51321;50.428;8.378;2022-11-15T15:52:05;9.15;;;4.35;;
64854;SDS011;51321;50.428;8.378;2022-11-15T15:54:27;8.10;;;5.53;;
64854;SDS011;51321;50.428;8.378;2022-11-15T15:56:51;5.93;;;4.20;;
64854;SDS011;51321;50.428;8.378;2022-11-15T15:59:13;6.35;;;4.45;;
64854;SDS011;51321;50.428;8.378;2022-11-15T16:01:35;5.93;;;3.80;;
64854;SDS011;51321;50.428;8.378;2022-11-15T16:03:58;5.95;;;3.90;;
64854;SDS011;51321;50.428;8.378;2022-11-15T16:06:26;4.97;;;3.00;;
64854;SDS011;51321;50.428;8.378;2022-11-15T16:08:56;5.32;;;2.60;;